sensor_id;sensor_type;location;lat;lon;timestamp;temperature;humidity
41469;DHT22;27206;47.032;15.484;2023-08-31T00:02:09;15.20;99.90
41469;DHT22;27206;47.032;15.484;2023-08-31T00:04:35;15.10;99.90
41469;DHT22;27206;47.032;15.484;2023-08-31T00:07:01;15.10;99.90
41469;DHT22;27206;47.032;15.484;2023-08-31T00:09:27;15.10;99.90
41469;DHT22;27206;47.032;15.484;2023-08-31T00:11:52;15.00;99.90
41469;DHT22;27206;47.032;15.484;2023-08-31T00:14:19;15.00;99.90
41469;DHT22;27206;47.032;15.484;2023-08-31T00:16:44;15.10;99.90
41469;DHT22;27206;47.032;15.484;2023-08-31T00:19:12;15.10;99.90
41469;DHT22;27206;47.032;15.484;2023-08-31T00:21:39;15.10;99.90
41469;DHT22;27206;47.032;15.484;2023-08-31T00:24:05;15.00;99.90
41469;DHT22;27206;47.032;15.484;2023-08-31T00:26:30;15.10;99.90
41469;DHT22;27206;47.032;15.484;2023-08-31T00:28:56;15.10;99.90
41469;DHT22;27206;47.032;15.484;2023-08-31T00:31:22;15.10;99.90
41469;DHT22;27206;47.032;15.484;2023-08-31T00:33:48;15.10;99.90
41469;DHT22;27206;47.032;15.484;2023-08-31T00:36:14;15.20;99.90
41469;DHT22;27206;47.032;15.484;2023-08-31T00:38:40;15.20;99.90
41469;DHT22;27206;47.032;15.484;2023-08-31T00:41:06;15.10;99.90
41469;DHT22;27206;47.032;15.484;2023-08-31T00:43:31;15.10;99.90
41469;DHT22;27206;47.032;15.484;2023-08-31T00:45:57;15.10;99.90
41469;DHT22;27206;47.032;15.484;2023-08-31T00:48:24;15.10;99.90
41469;DHT22;27206;47.032;15.484;2023-08-31T00:50:50;15.10;99.90
41469;DHT22;27206;47.032;15.484;2023-08-31T00:53:17;15.10;99.90
41469;DHT22;27206;47.032;15.484;2023-08-31T00:55:46;15.10;99.90
41469;DHT22;27206;47.032;15.484;2023-08-31T00:58:11;15.00;99.90
41469;DHT22;27206;47.032;15.484;2023-08-31T01:06:23;14.90;99.90
41469;DHT22;27206;47.032;15.484;2023-08-31T01:09:04;15.00;99.90
41469;DHT22;27206;47.032;15.484;2023-08-31T01:15:04;15.00;99.90
41469;DHT22;27206;47.032;15.484;2023-08-31T01:17:34;14.90;99.90
41469;DHT22;27206;47.032;15.484;2023-08-31T01:20:03;14.90;99.90
41469;DHT22;27206;47.032;15.484;2023-08-31T01:23:01;14.90;99.90
41469;DHT22;27206;47.032;15.484;2023-08-31T01:25:29;14.80;99.90
41469;DHT22;27206;47.032;15.484;2023-08-31T01:27:56;14.80;99.90
41469;DHT22;27206;47.032;15.484;2023-08-31T01:30:22;14.80;99.90
41469;DHT22;27206;47.032;15.484;2023-08-31T01:32:47;14.80;99.90
41469;DHT22;27206;47.032;15.484;2023-08-31T01:35:16;14.80;99.90
41469;DHT22;27206;47.032;15.484;2023-08-31T01:37:52;14.70;99.90
41469;DHT22;27206;47.032;15.484;2023-08-31T01:40:30;14.80;99.90
41469;DHT22;27206;47.032;15.484;2023-08-31T01:42:58;14.70;99.90
41469;DHT22;27206;47.032;15.484;2023-08-31T01:45:26;14.70;99.90
41469;DHT22;27206;47.032;15.484;2023-08-31T01:47:52;14.60;99.90
41469;DHT22;27206;47.032;15.484;2023-08-31T01:50:18;14.60;99.90
41469;DHT22;27206;47.032;15.484;2023-08-31T01:52:43;14.50;99.90
41469;DHT22;27206;47.032;15.484;2023-08-31T01:55:09;14.50;99.90
41469;DHT22;27206;47.032;15.484;2023-08-31T01:57:34;14.40;99.90
41469;DHT22;27206;47.032;15.484;2023-08-31T02:00:00;14.40;99.90
41469;DHT22;27206;47.032;15.484;2023-08-31T02:02:26;14.40;99.90
41469;DHT22;27206;47.032;15.484;2023-08-31T02:04:52;14.40;99.90
41469;DHT22;27206;47.032;15.484;2023-08-31T02:07:18;14.40;99.90
41469;DHT22;27206;47.032;15.484;2023-08-31T02:09:44;14.40;99.90
41469;DHT22;27206;47.032;15.484;2023-08-31T02:12:09;14.40;99.90
41469;DHT22;27206;47.032;15.484;2023-08-31T02:14:35;14.40;99.90
41469;DHT22;27206;47.032;15.484;2023-08-31T02:17:01;14.40;99.90
41469;DHT22;27206;47.032;15.484;2023-08-31T02:19:27;14.40;99.90
41469;DHT22;27206;47.032;15.484;2023-08-31T02:21:52;14.40;99.90
41469;DHT22;27206;47.032;15.484;2023-08-31T02:24:18;14.50;99.90
41469;DHT22;27206;47.032;15.484;2023-08-31T02:26:44;14.50;99.90
41469;DHT22;27206;47.032;15.484;2023-08-31T02:29:09;14.50;99.90
41469;DHT22;27206;47.032;15.484;2023-08-31T02:31:35;14.40;99.90
41469;DHT22;27206;47.032;15.484;2023-08-31T02:34:02;14.40;99.90
41469;DHT22;27206;47.032;15.484;2023-08-31T02:36:28;14.40;99.90
41469;DHT22;27206;47.032;15.484;2023-08-31T02:38:54;14.30;99.90
41469;DHT22;27206;47.032;15.484;2023-08-31T02:41:19;14.30;99.90
41469;DHT22;27206;47.032;15.484;2023-08-31T02:43:45;14.40;99.90
41469;DHT22;27206;47.032;15.484;2023-08-31T02:46:11;14.40;99.90
41469;DHT22;27206;47.032;15.484;2023-08-31T02:48:38;14.40;99.90
41469;DHT22;27206;47.032;15.484;2023-08-31T02:51:04;14.30;99.90
41469;DHT22;27206;47.032;15.484;2023-08-31T02:53:30;14.30;99.90
41469;DHT22;27206;47.032;15.484;2023-08-31T02:55:56;14.20;99.90
41469;DHT22;27206;47.032;15.484;2023-08-31T02:58:22;14.20;99.90
41469;DHT22;27206;47.032;15.484;2023-08-31T03:00:48;14.20;99.90
41469;DHT22;27206;47.032;15.484;2023-08-31T03:03:17;14.20;99.90
41469;DHT22;27206;47.032;15.484;2023-08-31T03:05:43;14.20;99.90
41469;DHT22;27206;47.032;15.484;2023-08-31T03:08:09;14.20;99.90
41469;DHT22;27206;47.032;15.484;2023-08-31T03:10:36;14.20;99.90
41469;DHT22;27206;47.032;15.484;2023-08-31T03:13:02;14.20;99.90
41469;DHT22;27206;47.032;15.484;2023-08-31T03:15:27;14.30;99.90
41469;DHT22;27206;47.032;15.484;2023-08-31T03:17:53;14.40;99.90
41469;DHT22;27206;47.032;15.484;2023-08-31T03:20:19;14.40;99.90
41469;DHT22;27206;47.032;15.484;2023-08-31T03:22:44;14.40;99.90
41469;DHT22;27206;47.032;15.484;2023-08-31T03:25:10;14.40;99.90
41469;DHT22;27206;47.032;15.484;2023-08-31T03:27:36;14.30;99.90
41469;DHT22;27206;47.032;15.484;2023-08-31T03:30:02;14.30;99.90
41469;DHT22;27206;47.032;15.484;2023-08-31T03:32:28;14.30;99.90
41469;DHT22;27206;47.032;15.484;2023-08-31T03:34:54;14.30;99.90
41469;DHT22;27206;47.032;15.484;2023-08-31T03:37:20;14.30;99.90
41469;DHT22;27206;47.032;15.484;2023-08-31T03:39:47;14.20;99.90
41469;DHT22;27206;47.032;15.484;2023-08-31T03:42:13;14.30;99.90
41469;DHT22;27206;47.032;15.484;2023-08-31T03:44:39;14.40;99.90
41469;DHT22;27206;47.032;15.484;2023-08-31T03:47:04;14.50;99.90
41469;DHT22;27206;47.032;15.484;2023-08-31T03:49:30;14.40;99.90
41469;DHT22;27206;47.032;15.484;2023-08-31T03:51:57;14.30;99.90
41469;DHT22;27206;47.032;15.484;2023-08-31T03:54:23;14.20;99.90
41469;DHT22;27206;47.032;15.484;2023-08-31T03:56:49;14.30;99.90
41469;DHT22;27206;47.032;15.484;2023-08-31T03:59:15;14.20;99.90
41469;DHT22;27206;47.032;15.484;2023-08-31T04:01:41;14.20;99.90
41469;DHT22;27206;47.032;15.484;2023-08-31T04:04:07;14.20;99.90
41469;DHT22;27206;47.032;15.484;2023-08-31T04:06:33;14.20;99.90
41469;DHT22;27206;47.032;15.484;2023-08-31T04:08:58;14.20;99.90
41469;DHT22;27206;47.032;15.484;2023-08-31T04:11:25;14.30;99.90
41469;DHT22;27206;47.032;15.484;2023-08-31T04:13:51;14.30;99.90
41469;DHT22;27206;47.032;15.484;2023-08-31T04:16:17;14.30;99.90
41469;DHT22;27206;47.032;15.484;2023-08-31T04:18:42;14.30;99.90
41469;DHT22;27206;47.032;15.484;2023-08-31T04:21:08;14.20;99.90
41469;DHT22;27206;47.032;15.484;2023-08-31T04:23:34;14.20;99.90
41469;DHT22;27206;47.032;15.484;2023-08-31T04:26:00;14.30;99.90
41469;DHT22;27206;47.032;15.484;2023-08-31T04:28:25;14.20;99.90
41469;DHT22;27206;47.032;15.484;2023-08-31T04:30:51;14.30;99.90
41469;DHT22;27206;47.032;15.484;2023-08-31T04:33:17;14.30;99.90
41469;DHT22;27206;47.032;15.484;2023-08-31T04:35:43;14.20;99.90
41469;DHT22;27206;47.032;15.484;2023-08-31T04:38:09;14.30;99.90
41469;DHT22;27206;47.032;15.484;2023-08-31T04:40:35;14.30;99.90
41469;DHT22;27206;47.032;15.484;2023-08-31T04:43:02;14.20;99.90
41469;DHT22;27206;47.032;15.484;2023-08-31T04:45:28;14.20;99.90
41469;DHT22;27206;47.032;15.484;2023-08-31T04:47:54;14.20;99.90
41469;DHT22;27206;47.032;15.484;2023-08-31T04:50:19;14.30;99.90
41469;DHT22;27206;47.032;15.484;2023-08-31T04:52:45;14.30;99.90
41469;DHT22;27206;47.032;15.484;2023-08-31T04:55:13;14.30;99.90
41469;DHT22;27206;47.032;15.484;2023-08-31T04:57:39;14.30;99.90
41469;DHT22;27206;47.032;15.484;2023-08-31T05:00:06;14.30;99.90
41469;DHT22;27206;47.032;15.484;2023-08-31T05:02:34;14.30;99.90
41469;DHT22;27206;47.032;15.484;2023-08-31T05:05:00;14.40;99.90
41469;DHT22;27206;47.032;15.484;2023-08-31T05:07:26;14.40;99.90
41469;DHT22;27206;47.032;15.484;2023-08-31T05:09:51;14.20;99.90
41469;DHT22;27206;47.032;15.484;2023-08-31T05:12:17;14.30;99.90
41469;DHT22;27206;47.032;15.484;2023-08-31T05:14:43;14.20;99.90
41469;DHT22;27206;47.032;15.484;2023-08-31T05:17:09;14.30;99.90
41469;DHT22;27206;47.032;15.484;2023-08-31T05:19:34;14.40;99.90
41469;DHT22;27206;47.032;15.484;2023-08-31T05:22:00;14.30;99.90
41469;DHT22;27206;47.032;15.484;2023-08-31T05:24:26;14.30;99.90
41469;DHT22;27206;47.032;15.484;2023-08-31T05:26:52;14.30;99.90
41469;DHT22;27206;47.032;15.484;2023-08-31T05:29:17;14.30;99.90
41469;DHT22;27206;47.032;15.484;2023-08-31T05:31:43;14.30;99.90
41469;DHT22;27206;47.032;15.484;2023-08-31T05:34:16;14.30;99.90
41469;DHT22;27206;47.032;15.484;2023-08-31T05:36:43;14.30;99.90
41469;DHT22;27206;47.032;15.484;2023-08-31T05:39:09;14.30;99.90
41469;DHT22;27206;47.032;15.484;2023-08-31T05:41:35;14.30;99.90
41469;DHT22;27206;47.032;15.484;2023-08-31T05:44:01;14.30;99.90
41469;DHT22;27206;47.032;15.484;2023-08-31T05:46:27;14.30;99.90
41469;DHT22;27206;47.032;15.484;2023-08-31T05:48:52;14.20;99.90
41469;DHT22;27206;47.032;15.484;2023-08-31T05:51:18;14.30;99.90
41469;DHT22;27206;47.032;15.484;2023-08-31T05:53:44;14.30;99.90
41469;DHT22;27206;47.032;15.484;2023-08-31T05:56:09;14.30;99.90
41469;DHT22;27206;47.032;15.484;2023-08-31T05:58:36;14.30;99.90
41469;DHT22;27206;47.032;15.484;2023-08-31T06:01:03;14.40;99.90
41469;DHT22;27206;47.032;15.484;2023-08-31T06:03:29;14.40;99.90
41469;DHT22;27206;47.032;15.484;2023-08-31T06:05:56;14.50;99.90
41469;DHT22;27206;47.032;15.484;2023-08-31T06:08:22;14.50;99.90
41469;DHT22;27206;47.032;15.484;2023-08-31T06:10:48;14.50;99.90
41469;DHT22;27206;47.032;15.484;2023-08-31T06:13:13;14.60;99.90
41469;DHT22;27206;47.032;15.484;2023-08-31T06:15:39;14.60;99.90
41469;DHT22;27206;47.032;15.484;2023-08-31T06:18:05;14.60;99.90
41469;DHT22;27206;47.032;15.484;2023-08-31T06:20:31;14.60;99.90
41469;DHT22;27206;47.032;15.484;2023-08-31T06:22:57;14.50;99.90
41469;DHT22;27206;47.032;15.484;2023-08-31T06:25:22;14.60;99.90
41469;DHT22;27206;47.032;15.484;2023-08-31T06:27:48;14.70;99.90
41469;DHT22;27206;47.032;15.484;2023-08-31T06:30:14;14.70;99.90
41469;DHT22;27206;47.032;15.484;2023-08-31T06:32:44;14.80;99.90
41469;DHT22;27206;47.032;15.484;2023-08-31T06:35:11;14.90;99.90
41469;DHT22;27206;47.032;15.484;2023-08-31T06:37:38;14.90;99.90
41469;DHT22;27206;47.032;15.484;2023-08-31T06:40:08;14.90;99.90
41469;DHT22;27206;47.032;15.484;2023-08-31T06:42:35;15.00;99.90
41469;DHT22;27206;47.032;15.484;2023-08-31T06:45:02;15.10;99.90
41469;DHT22;27206;47.032;15.484;2023-08-31T06:47:27;15.10;99.90
41469;DHT22;27206;47.032;15.484;2023-08-31T06:49:53;15.10;99.90
41469;DHT22;27206;47.032;15.484;2023-08-31T06:52:19;15.10;99.90
41469;DHT22;27206;47.032;15.484;2023-08-31T06:54:44;15.10;99.90
41469;DHT22;27206;47.032;15.484;2023-08-31T06:57:10;15.20;99.90
41469;DHT22;27206;47.032;15.484;2023-08-31T06:59:36;15.30;99.90
41469;DHT22;27206;47.032;15.484;2023-08-31T07:02:01;15.40;99.90
41469;DHT22;27206;47.032;15.484;2023-08-31T07:04:27;15.40;99.90
41469;DHT22;27206;47.032;15.484;2023-08-31T07:06:53;15.60;99.90
41469;DHT22;27206;47.032;15.484;2023-08-31T07:09:19;15.60;99.90
41469;DHT22;27206;47.032;15.484;2023-08-31T07:11:44;15.60;99.90
41469;DHT22;27206;47.032;15.484;2023-08-31T07:14:10;15.60;99.90
41469;DHT22;27206;47.032;15.484;2023-08-31T07:16:35;15.70;99.90
41469;DHT22;27206;47.032;15.484;2023-08-31T07:19:01;15.70;99.90
41469;DHT22;27206;47.032;15.484;2023-08-31T07:21:28;15.80;99.90
41469;DHT22;27206;47.032;15.484;2023-08-31T07:23:53;15.80;99.90
41469;DHT22;27206;47.032;15.484;2023-08-31T07:26:20;15.90;99.90
41469;DHT22;27206;47.032;15.484;2023-08-31T07:28:46;16.10;99.90
41469;DHT22;27206;47.032;15.484;2023-08-31T07:31:12;16.10;99.90
41469;DHT22;27206;47.032;15.484;2023-08-31T07:33:38;16.10;99.90
41469;DHT22;27206;47.032;15.484;2023-08-31T07:36:04;16.20;99.90
41469;DHT22;27206;47.032;15.484;2023-08-31T07:38:31;16.30;99.90
41469;DHT22;27206;47.032;15.484;2023-08-31T07:40:57;16.40;99.90
41469;DHT22;27206;47.032;15.484;2023-08-31T07:43:22;16.40;99.90
41469;DHT22;27206;47.032;15.484;2023-08-31T07:45:49;16.60;99.90
41469;DHT22;27206;47.032;15.484;2023-08-31T07:48:15;16.60;99.90
41469;DHT22;27206;47.032;15.484;2023-08-31T07:50:43;16.70;99.90
41469;DHT22;27206;47.032;15.484;2023-08-31T07:53:10;16.90;99.90
41469;DHT22;27206;47.032;15.484;2023-08-31T07:55:36;17.00;99.90
41469;DHT22;27206;47.032;15.484;2023-08-31T07:58:02;17.00;99.90
41469;DHT22;27206;47.032;15.484;2023-08-31T08:00:27;17.00;99.90
41469;DHT22;27206;47.032;15.484;2023-08-31T08:02:53;17.10;99.90
41469;DHT22;27206;47.032;15.484;2023-08-31T08:05:19;17.20;99.90
41469;DHT22;27206;47.032;15.484;2023-08-31T08:07:44;17.30;99.90
41469;DHT22;27206;47.032;15.484;2023-08-31T08:10:11;17.50;99.90
41469;DHT22;27206;47.032;15.484;2023-08-31T08:12:41;17.60;99.90
41469;DHT22;27206;47.032;15.484;2023-08-31T08:15:10;17.70;99.90
41469;DHT22;27206;47.032;15.484;2023-08-31T08:17:36;17.80;99.90
41469;DHT22;27206;47.032;15.484;2023-08-31T08:20:03;17.90;99.90
41469;DHT22;27206;47.032;15.484;2023-08-31T08:22:29;17.90;99.90
41469;DHT22;27206;47.032;15.484;2023-08-31T08:24:56;18.10;99.90
41469;DHT22;27206;47.032;15.484;2023-08-31T08:27:21;18.10;98.80
41469;DHT22;27206;47.032;15.484;2023-08-31T08:29:47;18.20;96.90
41469;DHT22;27206;47.032;15.484;2023-08-31T08:32:13;18.30;95.60
41469;DHT22;27206;47.032;15.484;2023-08-31T08:34:38;18.40;97.30
41469;DHT22;27206;47.032;15.484;2023-08-31T08:37:04;18.60;99.90
41469;DHT22;27206;47.032;15.484;2023-08-31T08:39:30;18.70;99.90
41469;DHT22;27206;47.032;15.484;2023-08-31T08:41:58;18.80;99.90
41469;DHT22;27206;47.032;15.484;2023-08-31T08:44:32;19.00;99.90
41469;DHT22;27206;47.032;15.484;2023-08-31T08:46:59;19.00;86.20
41469;DHT22;27206;47.032;15.484;2023-08-31T08:49:26;19.20;87.90
41469;DHT22;27206;47.032;15.484;2023-08-31T08:51:52;19.30;88.50
41469;DHT22;27206;47.032;15.484;2023-08-31T08:54:18;19.20;84.30
41469;DHT22;27206;47.032;15.484;2023-08-31T08:56:45;19.30;83.30
41469;DHT22;27206;47.032;15.484;2023-08-31T08:59:11;19.40;75.70
41469;DHT22;27206;47.032;15.484;2023-08-31T09:01:39;19.40;74.20
41469;DHT22;27206;47.032;15.484;2023-08-31T09:04:05;19.60;91.70
41469;DHT22;27206;47.032;15.484;2023-08-31T09:06:32;19.80;81.50
41469;DHT22;27206;47.032;15.484;2023-08-31T09:08:58;20.00;81.70
41469;DHT22;27206;47.032;15.484;2023-08-31T09:11:24;20.00;82.30
41469;DHT22;27206;47.032;15.484;2023-08-31T09:13:51;20.30;80.90
41469;DHT22;27206;47.032;15.484;2023-08-31T09:16:27;20.20;64.30
41469;DHT22;27206;47.032;15.484;2023-08-31T09:18:56;20.30;60.40
41469;DHT22;27206;47.032;15.484;2023-08-31T09:21:34;20.20;47.20
41469;DHT22;27206;47.032;15.484;2023-08-31T09:23:59;20.30;52.70
41469;DHT22;27206;47.032;15.484;2023-08-31T09:26:25;20.50;54.20
41469;DHT22;27206;47.032;15.484;2023-08-31T09:28:51;20.60;45.30
41469;DHT22;27206;47.032;15.484;2023-08-31T09:31:17;20.90;27.80
41469;DHT22;27206;47.032;15.484;2023-08-31T09:33:50;21.10;27.20
41469;DHT22;27206;47.032;15.484;2023-08-31T09:36:16;21.30;18.20
41469;DHT22;27206;47.032;15.484;2023-08-31T09:38:43;21.30;2.30
41469;DHT22;27206;47.032;15.484;2023-08-31T09:41:09;21.60;14.90
41469;DHT22;27206;47.032;15.484;2023-08-31T09:43:34;21.60;1.00
41469;DHT22;27206;47.032;15.484;2023-08-31T09:46:02;21.90;1.00
41469;DHT22;27206;47.032;15.484;2023-08-31T09:48:29;22.10;3.70
41469;DHT22;27206;47.032;15.484;2023-08-31T09:50:55;22.20;1.00
41469;DHT22;27206;47.032;15.484;2023-08-31T09:53:21;22.10;1.00
41469;DHT22;27206;47.032;15.484;2023-08-31T09:55:49;22.10;1.00
41469;DHT22;27206;47.032;15.484;2023-08-31T09:58:18;22.00;1.00
41469;DHT22;27206;47.032;15.484;2023-08-31T10:00:46;22.10;1.00
41469;DHT22;27206;47.032;15.484;2023-08-31T10:03:12;22.40;1.00
41469;DHT22;27206;47.032;15.484;2023-08-31T10:05:43;22.70;1.00
41469;DHT22;27206;47.032;15.484;2023-08-31T10:08:09;22.70;1.00
41469;DHT22;27206;47.032;15.484;2023-08-31T10:10:37;22.90;1.00
41469;DHT22;27206;47.032;15.484;2023-08-31T10:13:04;22.80;1.00
41469;DHT22;27206;47.032;15.484;2023-08-31T10:15:35;23.00;1.00
41469;DHT22;27206;47.032;15.484;2023-08-31T10:18:06;23.10;1.00
41469;DHT22;27206;47.032;15.484;2023-08-31T10:20:32;23.00;1.00
41469;DHT22;27206;47.032;15.484;2023-08-31T10:23:05;23.20;1.00
41469;DHT22;27206;47.032;15.484;2023-08-31T10:28:38;23.80;1.00
41469;DHT22;27206;47.032;15.484;2023-08-31T10:31:09;24.00;1.00
41469;DHT22;27206;47.032;15.484;2023-08-31T10:36:16;24.10;1.00
41469;DHT22;27206;47.032;15.484;2023-08-31T10:41:23;24.20;1.00
41469;DHT22;27206;47.032;15.484;2023-08-31T10:43:56;24.70;1.00
41469;DHT22;27206;47.032;15.484;2023-08-31T10:46:34;24.90;1.00
41469;DHT22;27206;47.032;15.484;2023-08-31T10:51:43;25.00;1.00
41469;DHT22;27206;47.032;15.484;2023-08-31T10:59:17;25.00;1.00
41469;DHT22;27206;47.032;15.484;2023-08-31T11:02:01;24.90;1.00
41469;DHT22;27206;47.032;15.484;2023-08-31T11:04:30;25.00;1.00
41469;DHT22;27206;47.032;15.484;2023-08-31T11:07:16;25.50;1.00
41469;DHT22;27206;47.032;15.484;2023-08-31T11:09:44;25.80;1.00
41469;DHT22;27206;47.032;15.484;2023-08-31T11:12:10;26.10;1.00
41469;DHT22;27206;47.032;15.484;2023-08-31T11:14:36;26.10;1.00
41469;DHT22;27206;47.032;15.484;2023-08-31T11:17:03;26.30;1.00
41469;DHT22;27206;47.032;15.484;2023-08-31T11:19:34;26.60;1.00
41469;DHT22;27206;47.032;15.484;2023-08-31T11:22:01;26.70;1.00
41469;DHT22;27206;47.032;15.484;2023-08-31T11:24:33;26.70;1.00
41469;DHT22;27206;47.032;15.484;2023-08-31T11:26:59;26.80;1.00
41469;DHT22;27206;47.032;15.484;2023-08-31T11:29:25;27.30;1.00
41469;DHT22;27206;47.032;15.484;2023-08-31T11:31:50;27.60;1.00
41469;DHT22;27206;47.032;15.484;2023-08-31T11:34:17;27.50;1.00
41469;DHT22;27206;47.032;15.484;2023-08-31T11:36:45;27.50;1.00
41469;DHT22;27206;47.032;15.484;2023-08-31T11:39:12;27.50;1.00
41469;DHT22;27206;47.032;15.484;2023-08-31T11:41:38;27.60;1.00
41469;DHT22;27206;47.032;15.484;2023-08-31T11:44:15;28.10;1.00
41469;DHT22;27206;47.032;15.484;2023-08-31T11:46:44;27.70;1.00
41469;DHT22;27206;47.032;15.484;2023-08-31T11:49:11;27.50;1.00
41469;DHT22;27206;47.032;15.484;2023-08-31T11:51:38;27.60;1.00
41469;DHT22;27206;47.032;15.484;2023-08-31T11:54:04;28.00;1.00
41469;DHT22;27206;47.032;15.484;2023-08-31T11:56:46;28.20;1.00
41469;DHT22;27206;47.032;15.484;2023-08-31T11:59:18;28.60;1.00
41469;DHT22;27206;47.032;15.484;2023-08-31T12:01:46;27.50;1.00
41469;DHT22;27206;47.032;15.484;2023-08-31T12:04:19;26.80;1.00
41469;DHT22;27206;47.032;15.484;2023-08-31T12:06:52;26.10;1.00
41469;DHT22;27206;47.032;15.484;2023-08-31T12:09:20;25.50;1.00
41469;DHT22;27206;47.032;15.484;2023-08-31T12:11:52;25.70;1.00
41469;DHT22;27206;47.032;15.484;2023-08-31T12:14:19;25.50;1.00
41469;DHT22;27206;47.032;15.484;2023-08-31T12:16:46;25.60;1.00
41469;DHT22;27206;47.032;15.484;2023-08-31T12:19:11;25.40;1.00
41469;DHT22;27206;47.032;15.484;2023-08-31T12:21:37;25.70;1.00
41469;DHT22;27206;47.032;15.484;2023-08-31T12:24:04;25.60;1.00
41469;DHT22;27206;47.032;15.484;2023-08-31T12:26:31;25.30;1.00
41469;DHT22;27206;47.032;15.484;2023-08-31T12:28:57;25.90;1.00
41469;DHT22;27206;47.032;15.484;2023-08-31T12:31:23;27.10;1.00
41469;DHT22;27206;47.032;15.484;2023-08-31T12:33:48;27.30;1.00
41469;DHT22;27206;47.032;15.484;2023-08-31T12:36:14;28.10;1.00
41469;DHT22;27206;47.032;15.484;2023-08-31T12:38:40;28.40;99.90
41469;DHT22;27206;47.032;15.484;2023-08-31T12:41:06;28.30;99.90
41469;DHT22;27206;47.032;15.484;2023-08-31T12:43:33;28.20;99.90
41469;DHT22;27206;47.032;15.484;2023-08-31T12:45:59;28.10;99.90
41469;DHT22;27206;47.032;15.484;2023-08-31T12:48:25;27.10;99.90
41469;DHT22;27206;47.032;15.484;2023-08-31T12:50:51;26.40;1.00
41469;DHT22;27206;47.032;15.484;2023-08-31T12:53:20;25.80;1.00
41469;DHT22;27206;47.032;15.484;2023-08-31T12:55:45;25.40;1.00
41469;DHT22;27206;47.032;15.484;2023-08-31T12:58:11;25.00;1.00
41469;DHT22;27206;47.032;15.484;2023-08-31T13:00:37;24.80;1.00
41469;DHT22;27206;47.032;15.484;2023-08-31T13:03:03;24.60;1.00
41469;DHT22;27206;47.032;15.484;2023-08-31T13:05:28;24.70;1.00
41469;DHT22;27206;47.032;15.484;2023-08-31T13:07:54;24.50;1.00
41469;DHT22;27206;47.032;15.484;2023-08-31T13:10:20;24.20;1.00
41469;DHT22;27206;47.032;15.484;2023-08-31T13:12:46;24.20;1.00
41469;DHT22;27206;47.032;15.484;2023-08-31T13:15:11;24.10;1.00
41469;DHT22;27206;47.032;15.484;2023-08-31T13:17:38;24.10;1.00
41469;DHT22;27206;47.032;15.484;2023-08-31T13:20:04;24.20;1.00
41469;DHT22;27206;47.032;15.484;2023-08-31T13:22:30;23.90;1.00
41469;DHT22;27206;47.032;15.484;2023-08-31T13:24:56;24.00;1.00
41469;DHT22;27206;47.032;15.484;2023-08-31T13:27:22;24.00;1.00
41469;DHT22;27206;47.032;15.484;2023-08-31T13:29:48;24.40;1.00
41469;DHT22;27206;47.032;15.484;2023-08-31T13:32:13;24.90;1.00
41469;DHT22;27206;47.032;15.484;2023-08-31T13:34:39;24.60;1.00
41469;DHT22;27206;47.032;15.484;2023-08-31T13:37:05;24.60;1.00
41469;DHT22;27206;47.032;15.484;2023-08-31T13:39:31;24.50;1.00
41469;DHT22;27206;47.032;15.484;2023-08-31T13:41:56;24.90;1.00
41469;DHT22;27206;47.032;15.484;2023-08-31T13:44:22;25.60;1.00
41469;DHT22;27206;47.032;15.484;2023-08-31T13:46:49;26.60;1.00
41469;DHT22;27206;47.032;15.484;2023-08-31T13:49:15;26.70;1.00
41469;DHT22;27206;47.032;15.484;2023-08-31T13:51:41;26.10;1.00
41469;DHT22;27206;47.032;15.484;2023-08-31T13:54:07;26.20;1.00
41469;DHT22;27206;47.032;15.484;2023-08-31T13:56:34;26.70;1.00
41469;DHT22;27206;47.032;15.484;2023-08-31T13:58:59;27.10;1.00
41469;DHT22;27206;47.032;15.484;2023-08-31T14:01:25;27.60;1.00
41469;DHT22;27206;47.032;15.484;2023-08-31T14:03:51;27.20;1.00
41469;DHT22;27206;47.032;15.484;2023-08-31T14:06:17;26.90;1.00
41469;DHT22;27206;47.032;15.484;2023-08-31T14:08:42;26.70;1.00
41469;DHT22;27206;47.032;15.484;2023-08-31T14:11:08;26.70;1.00
41469;DHT22;27206;47.032;15.484;2023-08-31T14:13:34;26.30;1.00
41469;DHT22;27206;47.032;15.484;2023-08-31T14:16:00;26.10;1.00
41469;DHT22;27206;47.032;15.484;2023-08-31T14:18:29;26.60;1.00
41469;DHT22;27206;47.032;15.484;2023-08-31T14:20:57;27.30;1.00
41469;DHT22;27206;47.032;15.484;2023-08-31T14:23:24;27.40;1.00
41469;DHT22;27206;47.032;15.484;2023-08-31T14:25:50;27.60;1.00
41469;DHT22;27206;47.032;15.484;2023-08-31T14:28:16;27.90;1.00
41469;DHT22;27206;47.032;15.484;2023-08-31T14:30:41;27.60;1.00
41469;DHT22;27206;47.032;15.484;2023-08-31T14:33:07;27.70;1.00
41469;DHT22;27206;47.032;15.484;2023-08-31T14:35:36;27.70;1.00
41469;DHT22;27206;47.032;15.484;2023-08-31T14:38:02;27.20;1.00
41469;DHT22;27206;47.032;15.484;2023-08-31T14:40:28;26.70;1.00
41469;DHT22;27206;47.032;15.484;2023-08-31T14:42:54;27.00;1.00
41469;DHT22;27206;47.032;15.484;2023-08-31T14:45:20;27.40;1.00
41469;DHT22;27206;47.032;15.484;2023-08-31T14:47:45;27.30;1.00
41469;DHT22;27206;47.032;15.484;2023-08-31T14:50:11;26.90;1.00
41469;DHT22;27206;47.032;15.484;2023-08-31T14:52:36;26.50;1.00
41469;DHT22;27206;47.032;15.484;2023-08-31T14:55:02;26.50;1.00
41469;DHT22;27206;47.032;15.484;2023-08-31T14:57:30;26.90;1.00
41469;DHT22;27206;47.032;15.484;2023-08-31T14:59:55;26.70;1.00
41469;DHT22;27206;47.032;15.484;2023-08-31T15:02:26;26.90;1.00
41469;DHT22;27206;47.032;15.484;2023-08-31T15:04:52;26.80;1.00
41469;DHT22;27206;47.032;15.484;2023-08-31T15:07:18;26.90;1.00
41469;DHT22;27206;47.032;15.484;2023-08-31T15:09:44;27.10;1.00
41469;DHT22;27206;47.032;15.484;2023-08-31T15:12:10;27.00;1.00
41469;DHT22;27206;47.032;15.484;2023-08-31T15:14:36;26.70;1.00
41469;DHT22;27206;47.032;15.484;2023-08-31T15:17:04;26.60;1.00
41469;DHT22;27206;47.032;15.484;2023-08-31T15:19:30;26.60;1.00
41469;DHT22;27206;47.032;15.484;2023-08-31T15:21:58;26.00;1.00
41469;DHT22;27206;47.032;15.484;2023-08-31T15:24:23;25.70;1.00
41469;DHT22;27206;47.032;15.484;2023-08-31T15:26:49;25.10;1.00
41469;DHT22;27206;47.032;15.484;2023-08-31T15:29:14;25.50;1.00
41469;DHT22;27206;47.032;15.484;2023-08-31T15:31:40;25.80;1.00
41469;DHT22;27206;47.032;15.484;2023-08-31T15:34:06;25.90;1.00
41469;DHT22;27206;47.032;15.484;2023-08-31T15:36:34;25.10;1.00
41469;DHT22;27206;47.032;15.484;2023-08-31T15:39:00;24.60;1.00
41469;DHT22;27206;47.032;15.484;2023-08-31T15:41:26;24.40;1.00
41469;DHT22;27206;47.032;15.484;2023-08-31T15:43:54;23.90;1.00
41469;DHT22;27206;47.032;15.484;2023-08-31T15:46:19;23.70;1.00